sensor_id;sensor_type;location;lat;lon;timestamp;P1;durP1;ratioP1;P2;durP2;ratioP2
21430;SDS011;10876;49.038;10.608;2023-04-06T00:02:24;6.90;;;4.35;;
21430;SDS011;10876;49.038;10.608;2023-04-06T00:04:51;7.28;;;4.15;;
21430;SDS011;10876;49.038;10.608;2023-04-06T00:07:18;6.95;;;3.88;;
21430;SDS011;10876;49.038;10.608;2023-04-06T00:09:47;7.10;;;4.22;;
21430;SDS011;10876;49.038;10.608;2023-04-06T00:12:15;6.85;;;3.80;;
21430;SDS011;10876;49.038;10.608;2023-04-06T00:14:42;7.43;;;4.55;;
21430;SDS011;10876;49.038;10.608;2023-04-06T00:17:09;8.52;;;4.63;;
21430;SDS011;10876;49.038;10.608;2023-04-06T00:19:36;8.88;;;4.82;;
21430;SDS011;10876;49.038;10.608;2023-04-06T00:22:03;5.47;;;3.75;;
21430;SDS011;10876;49.038;10.608;2023-04-06T00:24:30;9.30;;;4.68;;
21430;SDS011;10876;49.038;10.608;2023-04-06T00:26:59;8.48;;;4.45;;
21430;SDS011;10876;49.038;10.608;2023-04-06T00:29:26;8.88;;;4.45;;
21430;SDS011;10876;49.038;10.608;2023-04-06T00:31:53;10.05;;;5.13;;
21430;SDS011;10876;49.038;10.608;2023-04-06T00:34:20;8.05;;;4.78;;
21430;SDS011;10876;49.038;10.608;2023-04-06T00:36:47;7.22;;;4.20;;
21430;SDS011;10876;49.038;10.608;2023-04-06T00:39:14;6.97;;;4.53;;
21430;SDS011;10876;49.038;10.608;2023-04-06T00:41:42;8.20;;;4.30;;
21430;SDS011;10876;49.038;10.608;2023-04-06T00:44:14;9.25;;;4.97;;
21430;SDS011;10876;49.038;10.608;2023-04-06T00:46:41;6.38;;;4.60;;
21430;SDS011;10876;49.038;10.608;2023-04-06T00:49:08;8.73;;;4.60;;
21430;SDS011;10876;49.038;10.608;2023-04-06T00:51:35;7.15;;;4.65;;
21430;SDS011;10876;49.038;10.608;2023-04-06T00:54:02;10.63;;;5.40;;
21430;SDS011;10876;49.038;10.608;2023-04-06T00:56:30;6.57;;;4.75;;
21430;SDS011;10876;49.038;10.608;2023-04-06T00:58:57;7.85;;;4.93;;
21430;SDS011;10876;49.038;10.608;2023-04-06T01:01:26;7.53;;;4.28;;
21430;SDS011;10876;49.038;10.608;2023-04-06T01:03:53;6.50;;;4.18;;
21430;SDS011;10876;49.038;10.608;2023-04-06T01:06:20;7.90;;;4.28;;
21430;SDS011;10876;49.038;10.608;2023-04-06T01:08:47;6.45;;;3.90;;
21430;SDS011;10876;49.038;10.608;2023-04-06T01:11:15;8.85;;;4.68;;
21430;SDS011;10876;49.038;10.608;2023-04-06T01:13:42;8.98;;;4.85;;
21430;SDS011;10876;49.038;10.608;2023-04-06T01:16:09;15.02;;;4.70;;
21430;SDS011;10876;49.038;10.608;2023-04-06T01:18:37;8.98;;;4.65;;
21430;SDS011;10876;49.038;10.608;2023-04-06T01:21:05;7.80;;;4.93;;
21430;SDS011;10876;49.038;10.608;2023-04-06T01:23:35;7.97;;;4.78;;
21430;SDS011;10876;49.038;10.608;2023-04-06T01:26:02;7.55;;;5.15;;
21430;SDS011;10876;49.038;10.608;2023-04-06T01:28:29;8.10;;;4.53;;
21430;SDS011;10876;49.038;10.608;2023-04-06T01:30:56;11.63;;;5.43;;
21430;SDS011;10876;49.038;10.608;2023-04-06T01:33:23;6.72;;;4.07;;
21430;SDS011;10876;49.038;10.608;2023-04-06T01:35:50;10.77;;;5.30;;
21430;SDS011;10876;49.038;10.608;2023-04-06T01:38:17;6.97;;;4.68;;
21430;SDS011;10876;49.038;10.608;2023-04-06T01:40:46;11.02;;;5.15;;
21430;SDS011;10876;49.038;10.608;2023-04-06T01:43:13;7.63;;;4.90;;
21430;SDS011;10876;49.038;10.608;2023-04-06T01:45:40;9.00;;;4.78;;
21430;SDS011;10876;49.038;10.608;2023-04-06T01:48:07;11.85;;;4.38;;
21430;SDS011;10876;49.038;10.608;2023-04-06T01:50:34;7.05;;;4.25;;
21430;SDS011;10876;49.038;10.608;2023-04-06T01:53:01;9.00;;;5.20;;
21430;SDS011;10876;49.038;10.608;2023-04-06T01:55:29;11.32;;;5.40;;
21430;SDS011;10876;49.038;10.608;2023-04-06T01:57:57;9.88;;;4.90;;
21430;SDS011;10876;49.038;10.608;2023-04-06T02:00:24;7.95;;;4.43;;
21430;SDS011;10876;49.038;10.608;2023-04-06T02:02:51;7.03;;;4.53;;
21430;SDS011;10876;49.038;10.608;2023-04-06T02:05:19;7.78;;;4.65;;
21430;SDS011;10876;49.038;10.608;2023-04-06T02:07:46;9.13;;;4.43;;
21430;SDS011;10876;49.038;10.608;2023-04-06T02:10:14;7.40;;;4.45;;
21430;SDS011;10876;49.038;10.608;2023-04-06T02:12:41;8.40;;;4.47;;
21430;SDS011;10876;49.038;10.608;2023-04-06T02:15:10;7.43;;;4.68;;
21430;SDS011;10876;49.038;10.608;2023-04-06T02:17:38;9.90;;;4.88;;
21430;SDS011;10876;49.038;10.608;2023-04-06T02:20:06;8.80;;;4.32;;
21430;SDS011;10876;49.038;10.608;2023-04-06T02:22:34;10.05;;;4.93;;
21430;SDS011;10876;49.038;10.608;2023-04-06T02:25:01;9.35;;;4.68;;
21430;SDS011;10876;49.038;10.608;2023-04-06T02:27:28;9.77;;;4.93;;
21430;SDS011;10876;49.038;10.608;2023-04-06T02:29:55;8.15;;;4.53;;
21430;SDS011;10876;49.038;10.608;2023-04-06T02:32:24;10.18;;;4.90;;
21430;SDS011;10876;49.038;10.608;2023-04-06T02:34:51;10.43;;;5.18;;
21430;SDS011;10876;49.038;10.608;2023-04-06T02:37:18;8.85;;;4.40;;
21430;SDS011;10876;49.038;10.608;2023-04-06T02:39:45;9.35;;;5.38;;
21430;SDS011;10876;49.038;10.608;2023-04-06T02:42:12;11.52;;;5.07;;
21430;SDS011;10876;49.038;10.608;2023-04-06T02:44:40;8.20;;;5.32;;
21430;SDS011;10876;49.038;10.608;2023-04-06T02:47:08;8.20;;;4.88;;
21430;SDS011;10876;49.038;10.608;2023-04-06T02:49:36;7.78;;;4.57;;
21430;SDS011;10876;49.038;10.608;2023-04-06T02:52:04;11.75;;;4.70;;
21430;SDS011;10876;49.038;10.608;2023-04-06T02:54:31;7.07;;;4.35;;
21430;SDS011;10876;49.038;10.608;2023-04-06T02:56:58;5.95;;;3.88;;
21430;SDS011;10876;49.038;10.608;2023-04-06T02:59:25;8.07;;;4.80;;
21430;SDS011;10876;49.038;10.608;2023-04-06T03:01:52;8.85;;;4.68;;
21430;SDS011;10876;49.038;10.608;2023-04-06T03:04:19;8.75;;;5.22;;
21430;SDS011;10876;49.038;10.608;2023-04-06T03:06:49;10.35;;;5.40;;
21430;SDS011;10876;49.038;10.608;2023-04-06T03:09:16;9.90;;;4.85;;
21430;SDS011;10876;49.038;10.608;2023-04-06T03:11:43;7.95;;;4.90;;
21430;SDS011;10876;49.038;10.608;2023-04-06T03:14:10;7.75;;;4.93;;
21430;SDS011;10876;49.038;10.608;2023-04-06T03:16:37;7.15;;;4.97;;
21430;SDS011;10876;49.038;10.608;2023-04-06T03:19:04;10.20;;;5.05;;
21430;SDS011;10876;49.038;10.608;2023-04-06T03:21:31;10.75;;;5.47;;
21430;SDS011;10876;49.038;10.608;2023-04-06T03:24:00;10.85;;;5.03;;
21430;SDS011;10876;49.038;10.608;2023-04-06T03:26:27;9.32;;;5.45;;
21430;SDS011;10876;49.038;10.608;2023-04-06T03:28:54;9.52;;;5.50;;
21430;SDS011;10876;49.038;10.608;2023-04-06T03:31:21;8.57;;;5.22;;
21430;SDS011;10876;49.038;10.608;2023-04-06T03:33:48;9.93;;;5.47;;
21430;SDS011;10876;49.038;10.608;2023-04-06T03:36:15;8.80;;;5.70;;
21430;SDS011;10876;49.038;10.608;2023-04-06T03:38:42;10.27;;;5.35;;
21430;SDS011;10876;49.038;10.608;2023-04-06T03:41:11;7.65;;;4.88;;
21430;SDS011;10876;49.038;10.608;2023-04-06T03:43:38;9.88;;;5.70;;
21430;SDS011;10876;49.038;10.608;2023-04-06T06:00:55;10.10;;;4.85;;
21430;SDS011;10876;49.038;10.608;2023-04-06T06:03:37;8.43;;;5.28;;
21430;SDS011;10876;49.038;10.608;2023-04-06T06:06:04;10.70;;;5.10;;
21430;SDS011;10876;49.038;10.608;2023-04-06T06:08:31;14.20;;;5.35;;
21430;SDS011;10876;49.038;10.608;2023-04-06T06:10:58;11.07;;;5.40;;
21430;SDS011;10876;49.038;10.608;2023-04-06T06:13:25;9.63;;;5.47;;
21430;SDS011;10876;49.038;10.608;2023-04-06T06:15:54;8.85;;;6.15;;
21430;SDS011;10876;49.038;10.608;2023-04-06T06:18:21;14.20;;;6.60;;
21430;SDS011;10876;49.038;10.608;2023-04-06T06:20:48;10.85;;;6.65;;
21430;SDS011;10876;49.038;10.608;2023-04-06T06:23:17;13.80;;;7.60;;
21430;SDS011;10876;49.038;10.608;2023-04-06T06:25:44;14.15;;;6.60;;
21430;SDS011;10876;49.038;10.608;2023-04-06T06:28:11;14.77;;;7.03;;
21430;SDS011;10876;49.038;10.608;2023-04-06T06:30:38;13.55;;;6.90;;
21430;SDS011;10876;49.038;10.608;2023-04-06T06:33:07;11.68;;;7.10;;
21430;SDS011;10876;49.038;10.608;2023-04-06T06:35:34;13.43;;;7.60;;
21430;SDS011;10876;49.038;10.608;2023-04-06T06:38:01;13.38;;;8.10;;
21430;SDS011;10876;49.038;10.608;2023-04-06T06:40:28;17.30;;;8.48;;
21430;SDS011;10876;49.038;10.608;2023-04-06T06:42:55;11.82;;;6.95;;
21430;SDS011;10876;49.038;10.608;2023-04-06T06:45:22;15.13;;;6.95;;
21430;SDS011;10876;49.038;10.608;2023-04-06T06:47:50;11.57;;;7.32;;
21430;SDS011;10876;49.038;10.608;2023-04-06T06:50:19;13.90;;;7.85;;
21430;SDS011;10876;49.038;10.608;2023-04-06T06:52:46;10.95;;;7.18;;
21430;SDS011;10876;49.038;10.608;2023-04-06T06:55:13;11.23;;;6.68;;
21430;SDS011;10876;49.038;10.608;2023-04-06T06:57:40;11.23;;;6.55;;
21430;SDS011;10876;49.038;10.608;2023-04-06T07:00:08;14.18;;;7.07;;
21430;SDS011;10876;49.038;10.608;2023-04-06T07:02:36;10.25;;;6.30;;
21430;SDS011;10876;49.038;10.608;2023-04-06T07:05:03;10.63;;;6.05;;
21430;SDS011;10876;49.038;10.608;2023-04-06T07:07:32;15.15;;;6.57;;
21430;SDS011;10876;49.038;10.608;2023-04-06T07:09:59;13.57;;;6.68;;
21430;SDS011;10876;49.038;10.608;2023-04-06T07:12:27;10.95;;;6.32;;
21430;SDS011;10876;49.038;10.608;2023-04-06T07:14:54;10.07;;;6.35;;
21430;SDS011;10876;49.038;10.608;2023-04-06T07:17:21;10.70;;;6.53;;
21430;SDS011;10876;49.038;10.608;2023-04-06T07:19:48;12.93;;;6.78;;
21430;SDS011;10876;49.038;10.608;2023-04-06T07:22:15;9.57;;;5.72;;
21430;SDS011;10876;49.038;10.608;2023-04-06T07:24:44;9.70;;;5.72;;
21430;SDS011;10876;49.038;10.608;2023-04-06T07:27:11;9.98;;;6.07;;
21430;SDS011;10876;49.038;10.608;2023-04-06T07:29:38;10.35;;;5.65;;
21430;SDS011;10876;49.038;10.608;2023-04-06T07:32:05;10.20;;;5.68;;
21430;SDS011;10876;49.038;10.608;2023-04-06T07:34:32;8.77;;;5.85;;
21430;SDS011;10876;49.038;10.608;2023-04-06T07:36:59;9.98;;;6.32;;
21430;SDS011;10876;49.038;10.608;2023-04-06T07:39:26;14.80;;;7.53;;
21430;SDS011;10876;49.038;10.608;2023-04-06T07:41:56;11.80;;;6.57;;
21430;SDS011;10876;49.038;10.608;2023-04-06T07:44:23;9.85;;;5.82;;
21430;SDS011;10876;49.038;10.608;2023-04-06T07:46:50;9.70;;;5.72;;
21430;SDS011;10876;49.038;10.608;2023-04-06T07:49:17;9.52;;;6.13;;
21430;SDS011;10876;49.038;10.608;2023-04-06T07:51:46;8.70;;;5.32;;
21430;SDS011;10876;49.038;10.608;2023-04-06T07:54:13;9.70;;;6.15;;
21430;SDS011;10876;49.038;10.608;2023-04-06T07:56:40;9.45;;;5.85;;
21430;SDS011;10876;49.038;10.608;2023-04-06T07:59:08;8.57;;;6.00;;
21430;SDS011;10876;49.038;10.608;2023-04-06T08:01:36;10.55;;;5.95;;
21430;SDS011;10876;49.038;10.608;2023-04-06T08:04:03;11.18;;;6.03;;
21430;SDS011;10876;49.038;10.608;2023-04-06T08:06:30;13.35;;;6.40;;
21430;SDS011;10876;49.038;10.608;2023-04-06T08:08:57;10.70;;;6.82;;
21430;SDS011;10876;49.038;10.608;2023-04-06T08:11:24;10.40;;;5.90;;
21430;SDS011;10876;49.038;10.608;2023-04-06T08:13:52;10.38;;;6.72;;
21430;SDS011;10876;49.038;10.608;2023-04-06T08:16:20;10.88;;;6.90;;
21430;SDS011;10876;49.038;10.608;2023-04-06T08:18:53;10.02;;;5.93;;
21430;SDS011;10876;49.038;10.608;2023-04-06T08:21:56;9.48;;;6.07;;
21430;SDS011;10876;49.038;10.608;2023-04-06T08:24:23;11.60;;;6.75;;
21430;SDS011;10876;49.038;10.608;2023-04-06T08:26:50;7.68;;;5.57;;
21430;SDS011;10876;49.038;10.608;2023-04-06T08:29:17;10.60;;;6.65;;
21430;SDS011;10876;49.038;10.608;2023-04-06T08:31:46;11.20;;;6.40;;
21430;SDS011;10876;49.038;10.608;2023-04-06T08:34:13;13.60;;;6.90;;
21430;SDS011;10876;49.038;10.608;2023-04-06T08:36:40;11.77;;;7.05;;
21430;SDS011;10876;49.038;10.608;2023-04-06T08:39:07;12.48;;;6.75;;
21430;SDS011;10876;49.038;10.608;2023-04-06T08:41:35;10.50;;;5.63;;
21430;SDS011;10876;49.038;10.608;2023-04-06T08:44:02;10.55;;;6.65;;
21430;SDS011;10876;49.038;10.608;2023-04-06T08:46:30;10.20;;;6.57;;
21430;SDS011;10876;49.038;10.608;2023-04-06T08:48:59;11.88;;;6.78;;
21430;SDS011;10876;49.038;10.608;2023-04-06T08:51:27;12.23;;;6.80;;
21430;SDS011;10876;49.038;10.608;2023-04-06T08:53:55;14.20;;;7.25;;
21430;SDS011;10876;49.038;10.608;2023-04-06T08:56:24;12.80;;;6.70;;
21430;SDS011;10876;49.038;10.608;2023-04-06T08:58:53;9.95;;;6.78;;
21430;SDS011;10876;49.038;10.608;2023-04-06T09:01:22;11.40;;;6.75;;
21430;SDS011;10876;49.038;10.608;2023-04-06T09:03:53;11.95;;;6.38;;
21430;SDS011;10876;49.038;10.608;2023-04-06T09:06:24;13.90;;;7.38;;
21430;SDS011;10876;49.038;10.608;2023-04-06T09:08:52;11.68;;;7.43;;
21430;SDS011;10876;49.038;10.608;2023-04-06T09:11:20;11.18;;;6.65;;
21430;SDS011;10876;49.038;10.608;2023-04-06T09:13:47;11.73;;;6.70;;
21430;SDS011;10876;49.038;10.608;2023-04-06T09:16:15;12.77;;;7.00;;
21430;SDS011;10876;49.038;10.608;2023-04-06T09:18:43;11.40;;;6.65;;
21430;SDS011;10876;49.038;10.608;2023-04-06T09:21:15;12.48;;;7.03;;
21430;SDS011;10876;49.038;10.608;2023-04-06T09:23:45;14.68;;;7.93;;
21430;SDS011;10876;49.038;10.608;2023-04-06T09:26:14;12.18;;;7.63;;
21430;SDS011;10876;49.038;10.608;2023-04-06T09:28:48;12.15;;;7.60;;
21430;SDS011;10876;49.038;10.608;2023-04-06T09:31:17;13.05;;;7.82;;
21430;SDS011;10876;49.038;10.608;2023-04-06T09:33:50;12.40;;;7.50;;
21430;SDS011;10876;49.038;10.608;2023-04-06T09:36:18;12.98;;;7.35;;
21430;SDS011;10876;49.038;10.608;2023-04-06T09:38:53;13.05;;;7.60;;
21430;SDS011;10876;49.038;10.608;2023-04-06T09:41:22;14.88;;;7.68;;
21430;SDS011;10876;49.038;10.608;2023-04-06T09:43:50;12.30;;;7.05;;
21430;SDS011;10876;49.038;10.608;2023-04-06T09:46:17;12.35;;;7.57;;
21430;SDS011;10876;49.038;10.608;2023-04-06T09:48:47;11.65;;;6.90;;
21430;SDS011;10876;49.038;10.608;2023-04-06T09:51:16;15.70;;;7.40;;
21430;SDS011;10876;49.038;10.608;2023-04-06T09:53:49;10.05;;;7.03;;
21430;SDS011;10876;49.038;10.608;2023-04-06T09:56:23;12.90;;;7.68;;
21430;SDS011;10876;49.038;10.608;2023-04-06T09:58:55;12.75;;;7.03;;
21430;SDS011;10876;49.038;10.608;2023-04-06T10:01:28;12.85;;;7.60;;
21430;SDS011;10876;49.038;10.608;2023-04-06T10:04:01;13.30;;;7.53;;
21430;SDS011;10876;49.038;10.608;2023-04-06T10:06:35;12.48;;;7.20;;
21430;SDS011;10876;49.038;10.608;2023-04-06T10:09:05;10.82;;;7.18;;
21430;SDS011;10876;49.038;10.608;2023-04-06T10:11:34;13.02;;;8.00;;
21430;SDS011;10876;49.038;10.608;2023-04-06T10:14:01;11.52;;;7.53;;
21430;SDS011;10876;49.038;10.608;2023-04-06T10:16:29;13.18;;;7.40;;
21430;SDS011;10876;49.038;10.608;2023-04-06T10:18:58;12.77;;;7.82;;
21430;SDS011;10876;49.038;10.608;2023-04-06T10:21:29;12.27;;;6.90;;
21430;SDS011;10876;49.038;10.608;2023-04-06T10:23:59;13.02;;;7.43;;
21430;SDS011;10876;49.038;10.608;2023-04-06T10:26:29;12.45;;;7.50;;
21430;SDS011;10876;49.038;10.608;2023-04-06T10:29:01;11.77;;;7.20;;
21430;SDS011;10876;49.038;10.608;2023-04-06T10:31:29;13.73;;;7.95;;
21430;SDS011;10876;49.038;10.608;2023-04-06T10:33:57;12.23;;;7.30;;
21430;SDS011;10876;49.038;10.608;2023-04-06T10:36:26;13.35;;;7.45;;
21430;SDS011;10876;49.038;10.608;2023-04-06T10:38:55;9.13;;;6.35;;
21430;SDS011;10876;49.038;10.608;2023-04-06T10:41:24;13.07;;;6.93;;
21430;SDS011;10876;49.038;10.608;2023-04-06T10:44:00;10.30;;;7.13;;
21430;SDS011;10876;49.038;10.608;2023-04-06T10:46:28;10.88;;;6.55;;
21430;SDS011;10876;49.038;10.608;2023-04-06T10:48:56;13.63;;;7.47;;
21430;SDS011;10876;49.038;10.608;2023-04-06T10:51:24;10.93;;;6.60;;
21430;SDS011;10876;49.038;10.608;2023-04-06T10:53:53;10.88;;;6.38;;
21430;SDS011;10876;49.038;10.608;2023-04-06T10:56:22;10.80;;;6.68;;
21430;SDS011;10876;49.038;10.608;2023-04-06T10:58:52;10.50;;;6.63;;
21430;SDS011;10876;49.038;10.608;2023-04-06T11:01:21;11.77;;;6.75;;
21430;SDS011;10876;49.038;10.608;2023-04-06T11:03:52;10.90;;;6.85;;
21430;SDS011;10876;49.038;10.608;2023-04-06T11:06:21;10.35;;;6.57;;
21430;SDS011;10876;49.038;10.608;2023-04-06T11:08:49;9.05;;;6.57;;
21430;SDS011;10876;49.038;10.608;2023-04-06T11:11:18;9.77;;;6.22;;
21430;SDS011;10876;49.038;10.608;2023-04-06T11:13:46;9.57;;;6.35;;
21430;SDS011;10876;49.038;10.608;2023-04-06T11:16:17;9.38;;;5.68;;
21430;SDS011;10876;49.038;10.608;2023-04-06T11:18:51;10.40;;;6.50;;
21430;SDS011;10876;49.038;10.608;2023-04-06T11:21:20;9.65;;;6.65;;
21430;SDS011;10876;49.038;10.608;2023-04-06T11:24:03;14.65;;;7.50;;
21430;SDS011;10876;49.038;10.608;2023-04-06T11:26:36;9.10;;;6.88;;
21430;SDS011;10876;49.038;10.608;2023-04-06T11:29:04;11.35;;;7.13;;
21430;SDS011;10876;49.038;10.608;2023-04-06T11:31:33;11.60;;;7.45;;
21430;SDS011;10876;49.038;10.608;2023-04-06T11:34:09;12.65;;;8.27;;
21430;SDS011;10876;49.038;10.608;2023-04-06T11:36:39;12.32;;;7.30;;
21430;SDS011;10876;49.038;10.608;2023-04-06T11:39:07;11.57;;;7.50;;
21430;SDS011;10876;49.038;10.608;2023-04-06T11:41:35;11.48;;;7.15;;
21430;SDS011;10876;49.038;10.608;2023-04-06T11:44:02;11.57;;;7.40;;
21430;SDS011;10876;49.038;10.608;2023-04-06T11:46:29;11.10;;;7.18;;
21430;SDS011;10876;49.038;10.608;2023-04-06T11:48:59;10.60;;;7.05;;
21430;SDS011;10876;49.038;10.608;2023-04-06T11:51:27;10.95;;;7.35;;
21430;SDS011;10876;49.038;10.608;2023-04-06T11:53:54;11.25;;;7.47;;
21430;SDS011;10876;49.038;10.608;2023-04-06T11:56:25;11.07;;;6.88;;
21430;SDS011;10876;49.038;10.608;2023-04-06T11:58:57;11.00;;;7.10;;
21430;SDS011;10876;49.038;10.608;2023-04-06T12:01:25;9.57;;;6.60;;
21430;SDS011;10876;49.038;10.608;2023-04-06T12:03:53;13.50;;;7.57;;
21430;SDS011;10876;49.038;10.608;2023-04-06T12:06:21;10.82;;;7.38;;
21430;SDS011;10876;49.038;10.608;2023-04-06T12:08:50;12.38;;;6.93;;
21430;SDS011;10876;49.038;10.608;2023-04-06T12:11:17;10.85;;;6.97;;
21430;SDS011;10876;49.038;10.608;2023-04-06T12:13:45;12.20;;;7.05;;
21430;SDS011;10876;49.038;10.608;2023-04-06T12:16:12;11.05;;;7.28;;
21430;SDS011;10876;49.038;10.608;2023-04-06T12:18:39;9.63;;;7.00;;
21430;SDS011;10876;49.038;10.608;2023-04-06T12:21:06;10.00;;;7.13;;
21430;SDS011;10876;49.038;10.608;2023-04-06T12:23:35;13.50;;;7.47;;
21430;SDS011;10876;49.038;10.608;2023-04-06T12:26:02;12.48;;;7.78;;
21430;SDS011;10876;49.038;10.608;2023-04-06T12:28:30;11.20;;;6.88;;
21430;SDS011;10876;49.038;10.608;2023-04-06T12:30:57;12.57;;;6.38;;
21430;SDS011;10876;49.038;10.608;2023-04-06T12:33:24;12.18;;;6.57;;
21430;SDS011;10876;49.038;10.608;2023-04-06T12:35:51;12.40;;;7.18;;
21430;SDS011;10876;49.038;10.608;2023-04-06T12:38:18;11.00;;;7.38;;
21430;SDS011;10876;49.038;10.608;2023-04-06T12:40:47;10.10;;;6.85;;
21430;SDS011;10876;49.038;10.608;2023-04-06T12:43:14;12.90;;;7.22;;
21430;SDS011;10876;49.038;10.608;2023-04-06T12:45:41;11.18;;;7.70;;
21430;SDS011;10876;49.038;10.608;2023-04-06T12:48:08;11.60;;;7.60;;
21430;SDS011;10876;49.038;10.608;2023-04-06T12:50:35;12.93;;;7.57;;
21430;SDS011;10876;49.038;10.608;2023-04-06T12:53:02;11.93;;;7.45;;
21430;SDS011;10876;49.038;10.608;2023-04-06T12:55:29;12.30;;;7.65;;
21430;SDS011;10876;49.038;10.608;2023-04-06T12:58:00;12.25;;;7.50;;
21430;SDS011;10876;49.038;10.608;2023-04-06T13:00:28;11.63;;;7.25;;
21430;SDS011;10876;49.038;10.608;2023-04-06T13:02:55;10.93;;;7.45;;
21430;SDS011;10876;49.038;10.608;2023-04-06T13:05:22;10.68;;;7.25;;
21430;SDS011;10876;49.038;10.608;2023-04-06T13:07:49;13.50;;;7.40;;
21430;SDS011;10876;49.038;10.608;2023-04-06T13:10:16;11.73;;;7.40;;
21430;SDS011;10876;49.038;10.608;2023-04-06T13:12:44;10.70;;;6.95;;
21430;SDS011;10876;49.038;10.608;2023-04-06T13:15:12;11.95;;;7.28;;
21430;SDS011;10876;49.038;10.608;2023-04-06T13:17:40;11.52;;;7.22;;
21430;SDS011;10876;49.038;10.608;2023-04-06T13:20:07;11.63;;;7.72;;
21430;SDS011;10876;49.038;10.608;2023-04-06T13:22:35;11.93;;;6.75;;
21430;SDS011;10876;49.038;10.608;2023-04-06T13:25:02;9.10;;;6.82;;
21430;SDS011;10876;49.038;10.608;2023-04-06T13:27:30;8.32;;;5.97;;
21430;SDS011;10876;49.038;10.608;2023-04-06T13:29:59;9.45;;;5.32;;
21430;SDS011;10876;49.038;10.608;2023-04-06T13:32:27;8.23;;;5.70;;
21430;SDS011;10876;49.038;10.608;2023-04-06T13:34:55;9.23;;;5.80;;
21430;SDS011;10876;49.038;10.608;2023-04-06T13:37:22;10.98;;;6.13;;
21430;SDS011;10876;49.038;10.608;2023-04-06T13:39:49;10.32;;;6.43;;
21430;SDS011;10876;49.038;10.608;2023-04-06T13:42:17;10.05;;;6.50;;
21430;SDS011;10876;49.038;10.608;2023-04-06T13:44:44;9.23;;;6.45;;
21430;SDS011;10876;49.038;10.608;2023-04-06T13:47:12;9.38;;;6.07;;
21430;SDS011;10876;49.038;10.608;2023-04-06T13:49:42;10.05;;;6.22;;
21430;SDS011;10876;49.038;10.608;2023-04-06T13:52:09;10.38;;;6.40;;
21430;SDS011;10876;49.038;10.608;2023-04-06T13:54:36;9.23;;;6.28;;
21430;SDS011;10876;49.038;10.608;2023-04-06T13:57:03;10.75;;;6.60;;
21430;SDS011;10876;49.038;10.608;2023-04-06T13:59:32;9.05;;;5.80;;
21430;SDS011;10876;49.038;10.608;2023-04-06T14:02:00;10.38;;;6.60;;
21430;SDS011;10876;49.038;10.608;2023-04-06T14:04:27;11.75;;;6.88;;
21430;SDS011;10876;49.038;10.608;2023-04-06T14:06:55;9.80;;;6.10;;
21430;SDS011;10876;49.038;10.608;2023-04-06T14:09:22;9.73;;;6.10;;
21430;SDS011;10876;49.038;10.608;2023-04-06T14:11:49;10.32;;;6.75;;
21430;SDS011;10876;49.038;10.608;2023-04-06T14:14:16;10.32;;;6.60;;
21430;SDS011;10876;49.038;10.608;2023-04-06T14:16:43;10.48;;;6.65;;
21430;SDS011;10876;49.038;10.608;2023-04-06T14:19:11;8.52;;;5.28;;
21430;SDS011;10876;49.038;10.608;2023-04-06T14:21:40;8.77;;;5.20;;
21430;SDS011;10876;49.038;10.608;2023-04-06T14:24:10;9.40;;;5.45;;
21430;SDS011;10876;49.038;10.608;2023-04-06T14:26:39;10.38;;;6.55;;
21430;SDS011;10876;49.038;10.608;2023-04-06T14:29:06;9.10;;;5.93;;
21430;SDS011;10876;49.038;10.608;2023-04-06T14:31:35;11.05;;;6.25;;
21430;SDS011;10876;49.038;10.608;2023-04-06T14:34:02;9.68;;;5.78;;
21430;SDS011;10876;49.038;10.608;2023-04-06T14:36:30;8.52;;;5.93;;
21430;SDS011;10876;49.038;10.608;2023-04-06T14:39:01;10.25;;;6.10;;
21430;SDS011;10876;49.038;10.608;2023-04-06T14:41:31;10.43;;;5.68;;
21430;SDS011;10876;49.038;10.608;2023-04-06T14:43:59;7.22;;;5.20;;
21430;SDS011;10876;49.038;10.608;2023-04-06T14:46:26;9.18;;;5.82;;
21430;SDS011;10876;49.038;10.608;2023-04-06T14:48:54;8.55;;;5.35;;
21430;SDS011;10876;49.038;10.608;2023-04-06T14:51:21;7.10;;;5.47;;
21430;SDS011;10876;49.038;10.608;2023-04-06T14:53:50;8.05;;;5.38;;
21430;SDS011;10876;49.038;10.608;2023-04-06T14:56:20;7.80;;;5.45;;
21430;SDS011;10876;49.038;10.608;2023-04-06T14:58:49;8.18;;;5.47;;
21430;SDS011;10876;49.038;10.608;2023-04-06T15:01:17;8.43;;;5.40;;
21430;SDS011;10876;49.038;10.608;2023-04-06T15:03:45;7.97;;;5.63;;
21430;SDS011;10876;49.038;10.608;2023-04-06T15:06:12;8.05;;;5.68;;
21430;SDS011;10876;49.038;10.608;2023-04-06T15:08:41;9.65;;;5.90;;
21430;SDS011;10876;49.038;10.608;2023-04-06T15:11:08;9.05;;;6.15;;
21430;SDS011;10876;49.038;10.608;2023-04-06T15:13:36;10.27;;;6.35;;
21430;SDS011;10876;49.038;10.608;2023-04-06T15:16:04;9.52;;;5.93;;
21430;SDS011;10876;49.038;10.608;2023-04-06T15:18:33;8.57;;;5.65;;
21430;SDS011;10876;49.038;10.608;2023-04-06T15:21:00;9.15;;;5.80;;
21430;SDS011;10876;49.038;10.608;2023-04-06T15:23:27;8.02;;;5.43;;
21430;SDS011;10876;49.038;10.608;2023-04-06T15:25:55;10.13;;;6.22;;
21430;SDS011;10876;49.038;10.608;2023-04-06T15:28:22;8.52;;;5.70;;
21430;SDS011;10876;49.038;10.608;2023-04-06T15:30:49;9.43;;;6.25;;
21430;SDS011;10876;49.038;10.608;2023-04-06T15:33:19;9.55;;;5.93;;
21430;SDS011;10876;49.038;10.608;2023-04-06T15:35:46;9.15;;;5.50;;
21430;SDS011;10876;49.038;10.608;2023-04-06T15:38:13;8.30;;;6.05;;
21430;SDS011;10876;49.038;10.608;2023-04-06T15:40:44;10.35;;;5.53;;
21430;SDS011;10876;49.038;10.608;2023-04-06T15:43:12;10.02;;;5.78;;
21430;SDS011;10876;49.038;10.608;2023-04-06T15:45:40;7.22;;;5.60;;
21430;SDS011;10876;49.038;10.608;2023-04-06T15:48:07;9.30;;;5.50;;
21430;SDS011;10876;49.038;10.608;2023-04-06T15:50:36;7.85;;;5.07;;
21430;SDS011;10876;49.038;10.608;2023-04-06T15:53:03;8.57;;;5.47;;
21430;SDS011;10876;49.038;10.608;2023-04-06T15:55:30;9.57;;;5.50;;
21430;SDS011;10876;49.038;10.608;2023-04-06T15:57:56;8.63;;;5.63;;
21430;SDS011;10876;49.038;10.608;2023-04-06T16:00:23;9.07;;;6.13;;
21430;SDS011;10876;49.038;10.608;2023-04-06T16:02:52;8.98;;;6.22;;
21430;SDS011;10876;49.038;10.608;2023-04-06T16:05:21;10.38;;;6.32;;
21430;SDS011;10876;49.038;10.608;2023-04-06T16:07:49;8.82;;;5.97;;
21430;SDS011;10876;49.038;10.608;2023-04-06T16:10:16;10.93;;;6.22;;
21430;SDS011;10876;49.038;10.608;2023-04-06T16:12:43;11.43;;;5.90;;
21430;SDS011;10876;49.038;10.608;2023-04-06T16:15:10;9.52;;;6.20;;
21430;SDS011;10876;49.038;10.608;2023-04-06T16:17:37;10.10;;;5.57;;
21430;SDS011;10876;49.038;10.608;2023-04-06T16:20:05;11.05;;;6.00;;
21430;SDS011;10876;49.038;10.608;2023-04-06T16:22:33;9.57;;;6.53;;
21430;SDS011;10876;49.038;10.608;2023-04-06T16:25:03;12.07;;;6.53;;
21430;SDS011;10876;49.038;10.608;2023-04-06T16:27:30;11.38;;;6.68;;
21430;SDS011;10876;49.038;10.608;2023-04-06T16:29:57;9.80;;;6.30;;
21430;SDS011;10876;49.038;10.608;2023-04-06T16:32:25;9.07;;;5.80;;
21430;SDS011;10876;49.038;10.608;2023-04-06T16:34:56;8.27;;;5.78;;
21430;SDS011;10876;49.038;10.608;2023-04-06T16:37:25;12.93;;;8.60;;
21430;SDS011;10876;49.038;10.608;2023-04-06T16:39:53;13.35;;;6.78;;
21430;SDS011;10876;49.038;10.608;2023-04-06T16:42:22;10.93;;;6.13;;
21430;SDS011;10876;49.038;10.608;2023-04-06T16:44:49;9.20;;;5.95;;
21430;SDS011;10876;49.038;10.608;2023-04-06T16:47:16;9.65;;;5.63;;
21430;SDS011;10876;49.038;10.608;2023-04-06T16:49:43;8.35;;;5.70;;